Time;durP1;ratioP1;P1;durP2;ratioP2;P2;SDS_P1;SDS_P2;PMS_P1;PMS_P2;Temp;Humidity;BMP_temperature;BMP_pressure;BME280_temperature;BME280_humidity;BME280_pressure;Samples;Min_cycle;Max_cycle;Signal;HPM_P1;HPM_P2
2023/05/25 00:02:18;;;;;;;5.72;3.10;;;11.70;99.90;;;;;;4953624;29;20213;-73
2023/05/25 00:04:47;;;;;;;5.15;2.38;;;11.60;99.90;;;;;;4955158;29;20195;-69
2023/05/25 00:07:13;;;;;;;4.68;2.40;;;11.60;99.90;;;;;;4943422;29;20185;-73
2023/05/25 00:09:43;;;;;;;6.40;2.92;;;11.60;99.90;;;;;;4954234;29;20267;-67
2023/05/25 00:12:09;;;;;;;3.67;2.22;;;11.60;99.90;;;;;;4947942;29;20186;-71
2023/05/25 00:14:35;;;;;;;4.43;2.70;;;11.50;99.90;;;;;;4943440;28;20216;-65
2023/05/25 00:17:03;;;;;;;6.18;2.50;;;11.50;99.90;;;;;;4945028;28;20189;-72
2023/05/25 00:19:32;;;;;;;6.05;3.08;;;11.50;99.90;;;;;;4951774;29;20174;-71
2023/05/25 00:22:01;;;;;;;5.15;2.55;;;11.50;99.90;;;;;;4951947;29;20189;-72
2023/05/25 00:24:29;;;;;;;5.53;2.85;;;11.40;99.90;;;;;;4943289;29;20181;-70
2023/05/25 00:26:58;;;;;;;4.70;2.72;;;11.30;99.90;;;;;;4955692;28;20268;-71
2023/05/25 00:29:24;;;;;;;4.73;2.60;;;11.30;99.90;;;;;;4949611;29;20192;-74
2023/05/25 00:31:53;;;;;;;5.93;2.47;;;11.30;99.90;;;;;;4951178;29;20267;-73
2023/05/25 00:34:18;;;;;;;4.68;2.47;;;11.30;99.90;;;;;;4952365;29;20227;-74
2023/05/25 00:36:47;;;;;;;4.63;2.50;;;11.20;99.90;;;;;;4953606;29;20181;-71
2023/05/25 00:39:20;;;;;;;5.38;2.67;;;11.20;99.90;;;;;;4946033;29;20196;-71
2023/05/25 00:41:47;;;;;;;5.13;2.73;;;11.20;99.90;;;;;;4951678;29;20217;-73
2023/05/25 00:44:20;;;;;;;6.30;2.67;;;11.10;99.90;;;;;;4950037;29;20248;-73
2023/05/25 00:46:53;;;;;;;6.28;3.20;;;11.20;99.90;;;;;;4951291;28;20200;-69
2023/05/25 00:49:21;;;;;;;7.00;3.30;;;11.10;99.90;;;;;;4943665;29;20244;-69
2023/05/25 00:51:47;;;;;;;5.13;2.50;;;11.10;99.90;;;;;;4953396;29;20189;-71
2023/05/25 00:54:19;;;;;;;4.97;2.65;;;11.10;99.90;;;;;;4953427;29;20220;-71
2023/05/25 00:56:55;;;;;;;6.63;2.80;;;11.10;99.90;;;;;;4952870;29;20177;-72
2023/05/25 00:59:34;;;;;;;5.77;3.00;;;11.10;99.90;;;;;;4954481;28;20254;-70
2023/05/25 01:02:05;;;;;;;5.70;2.97;;;11.00;99.90;;;;;;4962566;28;20220;-72
2023/05/25 01:04:39;;;;;;;5.93;3.50;;;11.00;99.90;;;;;;4952111;28;20195;-64
2023/05/25 01:07:07;;;;;;;6.20;3.03;;;11.00;99.90;;;;;;4944148;29;20181;-72
2023/05/25 01:09:37;;;;;;;7.20;3.03;;;11.00;99.90;;;;;;4942937;29;20182;-72
2023/05/25 01:12:07;;;;;;;8.13;3.47;;;11.00;99.90;;;;;;4950750;28;20209;-69
2023/05/25 01:14:34;;;;;;;4.93;2.90;;;11.00;99.90;;;;;;4950315;29;20208;-71
2023/05/25 01:17:02;;;;;;;7.87;2.73;;;11.00;99.90;;;;;;4953338;28;20196;-68
2023/05/25 01:19:32;;;;;;;6.25;2.55;;;10.90;99.90;;;;;;4946685;29;20524;-70
2023/05/25 01:22:06;;;;;;;4.00;2.70;;;10.90;99.90;;;;;;4951821;29;20181;-72
2023/05/25 01:24:46;;;;;;;6.40;2.57;;;10.90;99.90;;;;;;4948076;28;20210;-71
2023/05/25 01:27:20;;;;;;;5.87;2.70;;;10.90;99.90;;;;;;4948856;29;20196;-72
2023/05/25 01:29:47;;;;;;;6.37;2.67;;;10.90;99.90;;;;;;4950827;29;20278;-72
2023/05/25 01:32:14;;;;;;;4.30;2.60;;;10.80;99.90;;;;;;4944407;28;20219;-72
2023/05/25 01:34:43;;;;;;;5.90;2.90;;;10.90;99.90;;;;;;4941577;29;20222;-70
2023/05/25 01:37:12;;;;;;;4.67;2.60;;;10.80;99.90;;;;;;4952861;28;20255;-71
2023/05/25 01:39:46;;;;;;;6.40;2.80;;;10.80;99.90;;;;;;4954654;29;20188;-71
2023/05/25 01:42:11;;;;;;;5.88;2.85;;;10.80;99.90;;;;;;4952923;29;20207;-72
2023/05/25 01:44:40;;;;;;;5.37;3.00;;;10.80;99.90;;;;;;4952286;28;20240;-70
2023/05/25 01:47:15;;;;;;;5.93;3.77;;;10.70;99.90;;;;;;4956713;29;20275;-71
2023/05/25 01:50:06;;;;;;;5.30;3.30;;;10.70;99.90;;;;;;4954585;28;20214;-73
2023/05/25 01:52:37;;;;;;;5.17;2.90;;;10.70;99.90;;;;;;4953336;29;20279;-72
2023/05/25 01:55:11;;;;;;;5.90;3.10;;;10.60;99.90;;;;;;4950612;28;20204;-71
2023/05/25 01:57:40;;;;;;;7.87;3.23;;;10.60;99.90;;;;;;4952129;29;20184;-68
2023/05/25 02:00:08;;;;;;;7.27;3.30;;;10.50;99.90;;;;;;4952612;29;20184;-68
2023/05/25 02:02:35;;;;;;;6.53;3.47;;;10.50;99.90;;;;;;4941558;29;20216;-72
2023/05/25 02:05:01;;;;;;;7.07;3.43;;;10.50;99.90;;;;;;4958394;28;20190;-71
2023/05/25 02:07:27;;;;;;;7.03;3.33;;;10.50;99.90;;;;;;4952092;29;20391;-72
2023/05/25 02:09:55;;;;;;;7.40;3.90;;;10.40;99.90;;;;;;4950917;29;20217;-72
2023/05/25 02:12:20;;;;;;;6.00;3.57;;;10.40;99.90;;;;;;4950761;29;20289;-72
2023/05/25 02:14:47;;;;;;;9.63;4.20;;;10.50;99.90;;;;;;4944021;28;20291;-71
2023/05/25 02:17:13;;;;;;;7.80;3.83;;;10.30;99.90;;;;;;4951862;29;20190;-71
2023/05/25 02:19:41;;;;;;;5.27;3.13;;;10.30;99.90;;;;;;4951143;29;20189;-71
2023/05/25 02:22:07;;;;;;;5.83;3.10;;;10.20;99.90;;;;;;4957012;28;20205;-72
2023/05/25 02:24:36;;;;;;;7.43;3.13;;;10.20;99.90;;;;;;4953333;29;20193;-71
2023/05/25 02:27:05;;;;;;;6.67;3.20;;;10.20;99.90;;;;;;4953710;28;20186;-72
2023/05/25 02:29:31;;;;;;;5.70;2.80;;;10.20;99.90;;;;;;4953148;28;20295;-71
2023/05/25 02:31:57;;;;;;;6.23;3.20;;;10.20;99.90;;;;;;4953398;29;20445;-70
2023/05/25 02:34:25;;;;;;;4.30;2.57;;;10.20;99.90;;;;;;4948799;28;20227;-71
2023/05/25 02:36:51;;;;;;;5.97;2.97;;;10.10;99.90;;;;;;4954447;29;20267;-72
2023/05/25 02:39:16;;;;;;;5.67;2.77;;;10.10;99.90;;;;;;4952131;29;20402;-71
2023/05/25 02:41:42;;;;;;;4.90;2.70;;;10.10;99.90;;;;;;4956640;28;20208;-71
2023/05/25 02:44:07;;;;;;;5.13;2.70;;;10.10;99.90;;;;;;4953390;29;20184;-72
2023/05/25 02:46:33;;;;;;;6.90;2.90;;;10.10;99.90;;;;;;4944504;29;20193;-71
2023/05/25 02:49:04;;;;;;;5.83;2.97;;;10.00;99.90;;;;;;4958509;29;20192;-72
2023/05/25 02:51:31;;;;;;;4.90;2.63;;;10.00;99.90;;;;;;4957626;29;20188;-71
2023/05/25 02:53:58;;;;;;;5.33;3.13;;;10.00;99.90;;;;;;4956320;28;20213;-72
2023/05/25 02:56:26;;;;;;;5.60;2.90;;;10.00;99.90;;;;;;4954711;29;20177;-72
2023/05/25 02:58:51;;;;;;;5.23;3.00;;;10.00;99.90;;;;;;4956964;28;20220;-70
2023/05/25 03:01:17;;;;;;;6.60;3.07;;;9.90;99.90;;;;;;4955393;29;20216;-72
2023/05/25 03:03:50;;;;;;;6.23;3.27;;;9.90;99.90;;;;;;4956620;29;20188;-71
2023/05/25 03:06:16;;;;;;;7.77;3.40;;;9.80;99.90;;;;;;4948079;29;20208;-71
2023/05/25 03:08:44;;;;;;;6.27;3.10;;;9.80;99.90;;;;;;4952331;29;20180;-72
2023/05/25 03:11:12;;;;;;;6.40;3.43;;;9.70;99.90;;;;;;4958081;29;20405;-72
2023/05/25 03:13:38;;;;;;;7.20;3.57;;;9.70;99.90;;;;;;4952661;29;20217;-72
2023/05/25 03:16:04;;;;;;;6.53;3.23;;;9.60;99.90;;;;;;4952455;28;20247;-70
2023/05/25 03:18:29;;;;;;;6.33;3.00;;;9.60;99.90;;;;;;4948145;29;20247;-73
2023/05/25 03:20:55;;;;;;;4.50;3.00;;;9.60;99.90;;;;;;4957364;29;20181;-73
2023/05/25 03:23:20;;;;;;;6.37;3.07;;;9.60;99.90;;;;;;4951172;29;20264;-71
2023/05/25 03:25:46;;;;;;;3.33;2.33;;;9.60;99.90;;;;;;4956295;29;20197;-69
2023/05/25 03:28:14;;;;;;;4.23;2.80;;;9.60;99.90;;;;;;4957171;29;20185;-73
2023/05/25 03:30:40;;;;;;;6.90;3.00;;;9.60;99.90;;;;;;4960757;28;20244;-73
2023/05/25 03:33:05;;;;;;;5.80;3.10;;;9.50;99.90;;;;;;4952529;29;20181;-72
2023/05/25 03:35:36;;;;;;;6.37;3.10;;;9.60;99.90;;;;;;4946963;29;20184;-72
2023/05/25 03:38:01;;;;;;;4.40;3.33;;;9.50;99.90;;;;;;4956416;28;20189;-68
2023/05/25 03:40:27;;;;;;;5.70;3.10;;;9.50;99.90;;;;;;4955744;29;20185;-72
2023/05/25 03:42:55;;;;;;;5.50;2.80;;;9.60;99.90;;;;;;4947535;29;20181;-72
2023/05/25 03:45:20;;;;;;;6.13;3.10;;;9.60;99.90;;;;;;4939528;29;20201;-72
2023/05/25 03:47:46;;;;;;;4.40;2.73;;;9.60;99.90;;;;;;4948933;29;20188;-73
2023/05/25 03:50:15;;;;;;;5.67;2.83;;;9.60;99.90;;;;;;4954886;29;20184;-72
2023/05/25 03:52:42;;;;;;;4.03;3.10;;;9.50;99.90;;;;;;4952995;29;20244;-68
2023/05/25 03:55:08;;;;;;;5.60;3.53;;;9.50;99.90;;;;;;4953934;29;20205;-72
2023/05/25 03:57:34;;;;;;;7.50;3.50;;;9.50;99.90;;;;;;4953626;28;20204;-72
2023/05/25 04:00:00;;;;;;;4.83;3.20;;;9.60;99.90;;;;;;4946290;28;20185;-72
2023/05/25 04:02:25;;;;;;;4.93;3.40;;;9.50;99.90;;;;;;4949525;28;20236;-73
2023/05/25 04:04:52;;;;;;;4.93;2.93;;;9.50;99.90;;;;;;4951361;28;20208;-72
2023/05/25 04:07:20;;;;;;;6.57;2.93;;;9.50;99.90;;;;;;4955152;28;20184;-72
2023/05/25 04:09:46;;;;;;;5.13;2.83;;;9.50;99.90;;;;;;4954777;29;20220;-73
2023/05/25 04:12:11;;;;;;;5.77;3.00;;;9.60;99.90;;;;;;4951100;29;20185;-69
2023/05/25 04:14:37;;;;;;;5.60;3.23;;;9.50;99.90;;;;;;4943095;28;20212;-71
2023/05/25 04:17:03;;;;;;;4.80;2.53;;;9.50;99.90;;;;;;4954632;28;20306;-72
2023/05/25 04:19:29;;;;;;;4.70;2.97;;;9.50;99.90;;;;;;4945606;29;20250;-73
2023/05/25 04:21:57;;;;;;;5.20;2.93;;;9.50;99.90;;;;;;4952591;29;20177;-72
2023/05/25 04:24:22;;;;;;;6.33;3.07;;;9.50;99.90;;;;;;4953294;28;20220;-71
2023/05/25 04:26:49;;;;;;;3.93;2.70;;;9.50;99.90;;;;;;4955825;29;20185;-71
2023/05/25 04:29:15;;;;;;;5.20;3.27;;;9.50;99.90;;;;;;4951370;29;20248;-73
2023/05/25 04:31:42;;;;;;;6.37;3.10;;;9.50;99.90;;;;;;4954710;29;20189;-72
2023/05/25 04:34:08;;;;;;;7.63;2.90;;;9.50;99.90;;;;;;4955646;29;20197;-72
2023/05/25 04:36:37;;;;;;;4.90;2.70;;;9.50;99.90;;;;;;4953430;29;20210;-72
2023/05/25 04:39:04;;;;;;;5.93;2.83;;;9.60;99.90;;;;;;4954005;29;20177;-73
2023/05/25 04:41:32;;;;;;;3.73;2.90;;;9.50;99.90;;;;;;4948383;28;20177;-72
2023/05/25 04:43:58;;;;;;;4.33;2.57;;;9.50;99.90;;;;;;4953356;28;20209;-72
2023/05/25 04:46:24;;;;;;;6.70;2.90;;;9.60;99.90;;;;;;4949537;29;20198;-73
2023/05/25 04:48:52;;;;;;;5.10;2.80;;;9.60;99.90;;;;;;4953278;29;20189;-68
2023/05/25 04:51:21;;;;;;;7.03;2.97;;;9.60;99.90;;;;;;4960314;28;20267;-70
2023/05/25 04:53:50;;;;;;;6.83;3.07;;;9.70;99.90;;;;;;4944279;29;20236;-72
2023/05/25 04:56:16;;;;;;;7.73;3.67;;;9.70;99.90;;;;;;4948233;28;20197;-73
2023/05/25 04:58:41;;;;;;;4.67;3.07;;;9.70;99.90;;;;;;4948373;29;20188;-71
2023/05/25 05:01:11;;;;;;;7.10;3.40;;;9.80;99.90;;;;;;4946108;29;20192;-65
2023/05/25 05:03:37;;;;;;;7.17;3.37;;;9.80;99.90;;;;;;4965771;28;20185;-64
2023/05/25 05:06:03;;;;;;;5.90;3.23;;;9.80;99.90;;;;;;4948310;29;20204;-64
2023/05/25 05:08:28;;;;;;;8.53;3.57;;;9.90;99.90;;;;;;4962911;28;20205;-63
2023/05/25 05:10:56;;;;;;;6.47;3.77;;;9.90;99.90;;;;;;4945750;29;20192;-65
2023/05/25 05:13:22;;;;;;;5.00;3.30;;;10.00;99.90;;;;;;4953039;29;20184;-65
2023/05/25 05:15:47;;;;;;;6.57;3.50;;;10.00;99.90;;;;;;4949210;29;20216;-64
2023/05/25 05:18:15;;;;;;;6.73;3.10;;;10.10;99.90;;;;;;4954568;29;20200;-65
2023/05/25 05:20:41;;;;;;;5.33;3.23;;;10.20;99.90;;;;;;4948970;29;20181;-65
2023/05/25 05:23:10;;;;;;;5.67;3.37;;;10.20;99.90;;;;;;4952488;28;20181;-65
2023/05/25 05:25:36;;;;;;;7.63;3.90;;;10.30;99.90;;;;;;4948316;28;20177;-65
2023/05/25 05:28:05;;;;;;;6.33;3.33;;;10.40;99.90;;;;;;4952539;28;20204;-64
2023/05/25 05:30:31;;;;;;;6.87;3.50;;;10.40;99.90;;;;;;4951061;29;20248;-65
2023/05/25 05:32:56;;;;;;;6.78;3.50;;;10.50;99.90;;;;;;4956073;29;20223;-64
2023/05/25 05:35:24;;;;;;;6.47;3.30;;;10.50;99.90;;;;;;4954238;29;20235;-65
2023/05/25 05:37:52;;;;;;;9.20;3.65;;;10.60;99.90;;;;;;4952782;28;20201;-65
2023/05/25 05:40:20;;;;;;;7.70;3.72;;;10.60;99.90;;;;;;4956192;28;20200;-65
2023/05/25 05:42:46;;;;;;;6.03;3.78;;;10.70;99.90;;;;;;4954830;29;20216;-66
2023/05/25 05:45:13;;;;;;;8.23;3.97;;;10.80;99.90;;;;;;4954438;29;20204;-63
2023/05/25 05:47:39;;;;;;;7.13;3.85;;;10.80;99.90;;;;;;4956278;29;20283;-65
2023/05/25 05:50:05;;;;;;;7.55;3.83;;;10.90;99.90;;;;;;4955275;29;20261;-65
2023/05/25 05:52:33;;;;;;;8.75;4.28;;;10.90;99.90;;;;;;4955286;28;20188;-66
2023/05/25 05:55:01;;;;;;;5.85;3.63;;;11.00;99.90;;;;;;4956473;28;20208;-65
2023/05/25 05:57:27;;;;;;;7.60;4.05;;;11.10;99.90;;;;;;4956685;29;20187;-65
2023/05/25 05:59:52;;;;;;;6.47;3.88;;;11.20;99.90;;;;;;4957642;28;20201;-65
2023/05/25 06:02:20;;;;;;;5.82;3.55;;;11.30;99.90;;;;;;4955467;29;20178;-67
2023/05/25 06:04:46;;;;;;;6.90;3.70;;;11.30;99.90;;;;;;4955969;29;20464;-64
2023/05/25 06:07:12;;;;;;;7.75;4.03;;;11.30;99.90;;;;;;4954308;29;20185;-66
2023/05/25 06:09:37;;;;;;;6.75;3.72;;;11.40;99.90;;;;;;4951687;29;20203;-66
2023/05/25 06:12:03;;;;;;;6.97;3.78;;;11.50;99.90;;;;;;4950123;28;20269;-64
2023/05/25 06:14:29;;;;;;;7.60;3.58;;;11.50;99.90;;;;;;4958325;29;20202;-66
2023/05/25 06:16:57;;;;;;;7.28;4.35;;;11.60;99.90;;;;;;4944067;29;20278;-66
2023/05/25 06:19:26;;;;;;;10.02;4.60;;;11.70;99.90;;;;;;4952503;28;20244;-65
2023/05/25 06:21:52;;;;;;;8.40;3.97;;;11.80;99.90;;;;;;4950521;29;20267;-66
2023/05/25 06:24:20;;;;;;;8.20;4.00;;;11.80;99.90;;;;;;4954573;29;20217;-65
2023/05/25 06:26:48;;;;;;;10.02;4.57;;;11.90;99.90;;;;;;4950952;29;20189;-67
2023/05/25 06:29:13;;;;;;;8.30;4.30;;;12.00;99.90;;;;;;4947635;29;20231;-67
2023/05/25 06:31:39;;;;;;;7.07;3.92;;;12.10;99.90;;;;;;4956534;28;20228;-66
2023/05/25 06:34:07;;;;;;;8.05;4.60;;;12.10;99.90;;;;;;4945017;29;20444;-66
2023/05/25 06:36:36;;;;;;;6.75;3.95;;;12.20;99.90;;;;;;4956384;28;20192;-66
2023/05/25 06:39:03;;;;;;;8.38;3.83;;;12.30;99.90;;;;;;4957344;29;20208;-66
2023/05/25 06:41:31;;;;;;;7.70;4.47;;;12.40;99.90;;;;;;4943838;29;20205;-66
2023/05/25 06:43:59;;;;;;;5.93;4.18;;;12.50;99.90;;;;;;4947222;28;20236;-66
2023/05/25 06:46:24;;;;;;;9.88;4.28;;;12.50;99.90;;;;;;4956100;29;20212;-66
2023/05/25 06:48:50;;;;;;;7.60;4.20;;;12.60;99.90;;;;;;4950165;28;20237;-66
2023/05/25 06:51:16;;;;;;;7.90;4.15;;;12.60;99.90;;;;;;4953071;29;20216;-65
2023/05/25 06:53:42;;;;;;;7.55;4.38;;;12.70;99.90;;;;;;4952487;29;20270;-66
2023/05/25 06:56:10;;;;;;;8.90;4.53;;;12.80;99.90;;;;;;4956291;28;20239;-67
2023/05/25 06:58:38;;;;;;;6.47;3.88;;;12.80;99.90;;;;;;4942182;29;20224;-66
2023/05/25 07:01:06;;;;;;;5.93;3.72;;;12.90;99.90;;;;;;4963824;28;20252;-66
2023/05/25 07:03:32;;;;;;;9.75;4.97;;;13.00;99.90;;;;;;4940606;29;20236;-66
2023/05/25 07:05:58;;;;;;;7.93;4.40;;;13.10;99.90;;;;;;4944955;28;20217;-64
2023/05/25 07:08:28;;;;;;;8.32;4.35;;;13.10;99.90;;;;;;4950953;28;20268;-65
2023/05/25 07:10:53;;;;;;;8.57;4.13;;;13.20;99.90;;;;;;4952650;29;20524;-66
2023/05/25 07:13:21;;;;;;;7.70;4.00;;;13.20;99.90;;;;;;4955217;29;20196;-66
2023/05/25 07:15:47;;;;;;;6.45;4.32;;;13.30;99.90;;;;;;4953157;28;20231;-66
2023/05/25 07:18:13;;;;;;;8.77;4.65;;;13.40;99.90;;;;;;4952609;29;20217;-65
2023/05/25 07:20:44;;;;;;;6.35;4.00;;;13.40;99.90;;;;;;4949733;29;20188;-69
2023/05/25 07:23:15;;;;;;;6.57;3.63;;;13.50;99.90;;;;;;4950630;28;20184;-68
2023/05/25 07:25:40;;;;;;;6.00;4.30;;;13.50;99.90;;;;;;4946262;29;20206;-69
2023/05/25 07:28:08;;;;;;;8.77;3.90;;;13.60;99.90;;;;;;4952384;29;20211;-68
2023/05/25 07:30:34;;;;;;;6.82;3.97;;;13.60;99.90;;;;;;4967566;28;20208;-69
2023/05/25 07:33:02;;;;;;;7.28;3.85;;;13.70;99.90;;;;;;4956484;29;20177;-69
2023/05/25 07:35:30;;;;;;;7.85;4.25;;;13.70;99.90;;;;;;4957673;29;20243;-68
2023/05/25 07:38:00;;;;;;;6.90;3.90;;;13.90;99.90;;;;;;4957765;29;20177;-69
2023/05/25 07:40:27;;;;;;;7.60;4.07;;;13.90;99.90;;;;;;4955158;29;20260;-69
2023/05/25 07:42:53;;;;;;;8.73;3.92;;;13.90;99.90;;;;;;4957235;28;20263;-69
2023/05/25 07:45:18;;;;;;;8.38;3.97;;;14.00;99.90;;;;;;4958104;28;20181;-70
2023/05/25 07:47:44;;;;;;;6.47;4.10;;;14.00;99.90;;;;;;4957904;29;20248;-67
2023/05/25 07:50:12;;;;;;;7.75;3.45;;;14.10;99.90;;;;;;4958164;29;20212;-68
2023/05/25 07:52:40;;;;;;;7.88;3.83;;;14.20;99.90;;;;;;4958056;29;20263;-66
2023/05/25 07:55:11;;;;;;;6.55;3.85;;;14.20;99.90;;;;;;4955984;28;20978;-66
2023/05/25 07:57:39;;;;;;;6.43;4.22;;;14.30;99.90;;;;;;4957928;29;20177;-66
2023/05/25 08:00:07;;;;;;;7.95;4.20;;;14.30;99.90;;;;;;4953877;29;20185;-65
2023/05/25 08:02:35;;;;;;;7.85;4.43;;;14.40;99.90;;;;;;4950271;29;20169;-67
2023/05/25 08:05:04;;;;;;;6.43;3.95;;;14.50;99.90;;;;;;4952761;28;20245;-66
2023/05/25 08:07:32;;;;;;;7.72;3.92;;;14.50;99.90;;;;;;4943918;28;20233;-64
2023/05/25 08:10:00;;;;;;;8.30;4.20;;;14.60;99.90;;;;;;4951142;29;20212;-66
2023/05/25 08:12:26;;;;;;;8.82;4.47;;;14.60;99.90;;;;;;4956748;28;20201;-66
2023/05/25 08:14:52;;;;;;;6.53;4.28;;;14.70;99.90;;;;;;4952888;29;20197;-64
2023/05/25 08:17:21;;;;;;;6.32;3.80;;;14.80;99.90;;;;;;4951696;28;20188;-64
2023/05/25 08:19:49;;;;;;;7.22;4.30;;;14.90;99.90;;;;;;4951929;28;20197;-65
2023/05/25 08:22:15;;;;;;;10.45;5.40;;;14.90;99.90;;;;;;4955000;29;20219;-65
2023/05/25 08:24:43;;;;;;;8.32;4.78;;;15.00;99.90;;;;;;4953421;28;20295;-65
2023/05/25 08:27:08;;;;;;;7.63;4.43;;;15.10;99.90;;;;;;4955029;29;20180;-64
2023/05/25 08:29:36;;;;;;;8.27;4.20;;;15.10;99.90;;;;;;4951742;28;20821;-64
2023/05/25 08:32:04;;;;;;;9.70;4.90;;;15.20;99.90;;;;;;4951208;29;20185;-64
2023/05/25 08:34:30;;;;;;;10.07;4.60;;;15.30;99.90;;;;;;4942006;29;20212;-66
2023/05/25 08:36:59;;;;;;;7.00;4.85;;;15.30;99.90;;;;;;4947760;28;20201;-66
2023/05/25 08:39:24;;;;;;;8.73;4.78;;;15.40;99.90;;;;;;4955396;29;20187;-65
2023/05/25 08:41:50;;;;;;;8.93;4.10;;;15.40;99.90;;;;;;4954340;28;20201;-66
2023/05/25 08:44:16;;;;;;;6.43;4.53;;;15.50;99.90;;;;;;4955172;28;20185;-65
2023/05/25 08:46:42;;;;;;;8.35;4.88;;;15.60;99.90;;;;;;4953284;28;20184;-65
2023/05/25 08:49:12;;;;;;;6.95;4.85;;;15.60;99.90;;;;;;4953304;29;20200;-66
2023/05/25 08:51:42;;;;;;;7.53;4.80;;;15.70;99.90;;;;;;4951594;29;20205;-64
2023/05/25 08:54:11;;;;;;;11.68;4.85;;;15.80;99.90;;;;;;4951783;28;20212;-66
2023/05/25 08:56:50;;;;;;;8.75;5.00;;;15.90;99.90;;;;;;4955125;29;20200;-66
2023/05/25 08:59:34;;;;;;;6.20;3.88;;;15.90;99.90;;;;;;4961757;28;20185;-65
2023/05/25 09:02:15;;;;;;;7.75;4.57;;;16.00;99.90;;;;;;4952208;28;20181;-65
2023/05/25 09:04:44;;;;;;;7.18;4.00;;;16.10;99.90;;;;;;4939853;29;20196;-65
2023/05/25 09:07:12;;;;;;;7.68;4.20;;;16.20;99.90;;;;;;4953137;29;20192;-65
2023/05/25 09:09:39;;;;;;;8.15;4.07;;;16.30;99.90;;;;;;4952498;29;20239;-64
2023/05/25 09:12:08;;;;;;;7.20;3.83;;;16.40;99.90;;;;;;4947534;28;20215;-64
2023/05/25 09:14:36;;;;;;;8.48;4.43;;;16.50;99.90;;;;;;4949021;29;20208;-65
2023/05/25 09:17:05;;;;;;;5.95;3.78;;;16.60;99.90;;;;;;4944754;28;20216;-64
2023/05/25 09:19:30;;;;;;;7.82;3.97;;;16.70;99.90;;;;;;4944497;29;20180;-65
2023/05/25 09:21:56;;;;;;;6.07;4.47;;;16.80;99.90;;;;;;4940461;29;20177;-65
2023/05/25 09:24:22;;;;;;;8.05;4.15;;;16.90;99.90;;;;;;4950828;28;20181;-65
2023/05/25 09:26:48;;;;;;;7.32;4.28;;;17.00;99.90;;;;;;4954283;29;20213;-65
2023/05/25 09:29:15;;;;;;;7.93;4.30;;;17.10;99.90;;;;;;4952734;29;20223;-67
2023/05/25 09:31:41;;;;;;;7.22;4.47;;;17.20;99.90;;;;;;4952270;29;20209;-65
2023/05/25 09:34:14;;;;;;;7.38;4.18;;;17.30;99.90;;;;;;4953642;29;20224;-64
2023/05/25 09:36:42;;;;;;;9.38;4.80;;;17.50;99.90;;;;;;4957182;28;20177;-61
2023/05/25 09:39:09;;;;;;;9.63;4.82;;;17.60;99.90;;;;;;4969876;28;20196;-65
2023/05/25 09:41:40;;;;;;;6.78;4.13;;;17.80;99.90;;;;;;4955160;28;20224;-64
2023/05/25 09:44:06;;;;;;;8.10;4.32;;;17.90;99.90;;;;;;4955837;28;20207;-65
2023/05/25 09:46:35;;;;;;;7.32;4.18;;;18.10;99.90;;;;;;4954952;29;20181;-65
2023/05/25 09:49:07;;;;;;;7.13;3.83;;;18.30;99.90;;;;;;4955212;28;20248;-65
2023/05/25 09:51:37;;;;;;;7.93;3.70;;;18.50;99.90;;;;;;4953671;29;20176;-66
2023/05/25 09:54:09;;;;;;;5.57;3.55;;;18.70;99.90;;;;;;4942198;29;20212;-67
2023/05/25 09:56:35;;;;;;;7.90;3.05;;;18.90;99.90;;;;;;4954542;29;20222;-66
2023/05/25 09:59:03;;;;;;;6.63;3.97;;;19.10;99.90;;;;;;4943328;28;20213;-64
2023/05/25 10:01:31;;;;;;;7.72;3.95;;;19.20;99.90;;;;;;4944216;29;20181;-65
2023/05/25 10:04:00;;;;;;;5.65;3.30;;;19.20;99.90;;;;;;4954460;29;20207;-66
2023/05/25 10:06:28;;;;;;;8.13;3.63;;;19.20;99.90;;;;;;4950392;28;20208;-64
2023/05/25 10:08:58;;;;;;;5.03;3.50;;;19.30;99.90;;;;;;4954535;29;20189;-67
2023/05/25 10:11:26;;;;;;;9.23;3.70;;;19.40;99.90;;;;;;4954858;28;20196;-66
2023/05/25 10:13:54;;;;;;;5.97;3.53;;;19.40;99.90;;;;;;4953604;28;20208;-70
2023/05/25 10:16:28;;;;;;;8.55;3.80;;;19.40;99.90;;;;;;4950199;29;20193;-67
2023/05/25 10:19:09;;;;;;;6.10;3.40;;;19.50;99.90;;;;;;4946359;29;20301;-66
2023/05/25 10:21:40;;;;;;;5.88;3.28;;;19.50;99.90;;;;;;4942793;29;20180;-66
2023/05/25 10:24:22;;;;;;;6.32;3.33;;;19.50;99.90;;;;;;4950427;29;20200;-66
2023/05/25 10:26:53;;;;;;;6.85;3.53;;;19.60;99.90;;;;;;4940859;28;20177;-65
2023/05/25 10:29:20;;;;;;;6.45;3.97;;;19.70;99.90;;;;;;4951060;28;20215;-66
2023/05/25 10:31:49;;;;;;;5.85;3.22;;;19.90;99.90;;;;;;4949825;29;20191;-66
2023/05/25 10:34:20;;;;;;;6.90;3.53;;;20.00;99.90;;;;;;4957798;28;20222;-64
2023/05/25 10:36:47;;;;;;;5.22;3.03;;;20.10;99.90;;;;;;4955504;29;20264;-64
2023/05/25 11:10:13;;;;;;;6.88;2.70;;;20.80;99.90;;;;;;5092337;27;20595;-66
2023/05/25 11:12:41;;;;;;;4.07;2.28;;;22.10;99.90;;;;;;5065106;28;20181;-63
2023/05/25 11:15:17;;;;;;;4.72;2.35;;;22.20;99.90;;;;;;5081279;28;20196;-66
2023/05/25 11:17:59;;;;;;;3.65;1.83;;;22.30;99.90;;;;;;5070203;28;20194;-66
2023/05/25 11:20:27;;;;;;;3.08;1.98;;;22.40;99.90;;;;;;5069484;28;20224;-65
2023/05/25 11:22:55;;;;;;;4.90;2.10;;;22.40;99.90;;;;;;5070779;28;20267;-67
2023/05/25 11:25:43;;;;;;;4.13;2.47;;;22.40;99.90;;;;;;5069322;28;20200;-66
2023/05/25 11:28:11;;;;;;;4.63;2.50;;;22.40;99.90;;;;;;5069913;28;20204;-66
2023/05/25 11:30:42;;;;;;;4.90;2.33;;;22.40;99.90;;;;;;5069168;28;20271;-66
2023/05/25 11:33:08;;;;;;;4.95;2.08;;;22.40;99.90;;;;;;5069985;28;20181;-66
2023/05/25 11:35:40;;;;;;;4.72;2.05;;;22.40;99.90;;;;;;5070257;28;20328;-66
2023/05/25 11:38:07;;;;;;;3.00;1.80;;;22.30;99.90;;;;;;5062077;28;20409;-66
2023/05/25 11:40:33;;;;;;;4.30;1.80;;;22.20;99.90;;;;;;5070501;28;20980;-66
2023/05/25 11:42:59;;;;;;;4.82;2.40;;;22.20;99.90;;;;;;5068233;28;20173;-66
2023/05/25 11:45:28;;;;;;;4.18;2.30;;;22.30;99.90;;;;;;5069758;28;20185;-65
2023/05/25 11:47:53;;;;;;;2.78;2.00;;;22.40;99.90;;;;;;5069143;28;20205;-63
2023/05/25 11:50:20;;;;;;;4.50;2.13;;;22.40;99.90;;;;;;5066362;28;20183;-65
2023/05/25 11:52:48;;;;;;;5.03;2.58;;;22.50;99.90;;;;;;5068377;28;20180;-64
2023/05/25 11:55:14;;;;;;;8.23;2.50;;;22.70;99.90;;;;;;5070016;28;20180;-65
2023/05/25 11:57:42;;;;;;;4.82;2.42;;;22.90;99.90;;;;;;5060652;28;20246;-65
2023/05/25 12:00:10;;;;;;;4.22;2.40;;;23.00;99.90;;;;;;5070319;28;20197;-64
2023/05/25 12:02:37;;;;;;;5.53;2.75;;;23.10;99.90;;;;;;5070163;28;20189;-65
2023/05/25 12:05:10;;;;;;;5.38;2.97;;;23.10;99.90;;;;;;5069762;28;20185;-65
2023/05/25 12:07:46;;;;;;;3.95;2.55;;;23.10;99.90;;;;;;5059136;28;20227;-64
2023/05/25 12:10:16;;;;;;;6.25;2.83;;;23.20;99.90;;;;;;5061502;28;20191;-66
2023/05/25 12:12:43;;;;;;;4.32;2.42;;;23.30;99.90;;;;;;5054597;28;20200;-65
2023/05/25 12:15:13;;;;;;;7.30;2.90;;;23.30;99.90;;;;;;5056701;28;20184;-65
2023/05/25 12:17:45;;;;;;;4.72;3.05;;;23.40;99.90;;;;;;5055638;28;20178;-65
2023/05/25 12:20:12;;;;;;;5.28;2.78;;;23.50;99.10;;;;;;5056805;28;20205;-66
2023/05/25 12:22:39;;;;;;;4.72;2.78;;;23.60;99.80;;;;;;5054418;28;20212;-66
2023/05/25 12:25:14;;;;;;;7.63;4.18;;;23.50;99.60;;;;;;5064486;28;20201;-66
2023/05/25 12:27:40;;;;;;;4.90;3.47;;;23.50;98.40;;;;;;5056134;28;20260;-64
2023/05/25 12:30:10;;;;;;;4.78;2.85;;;23.50;99.40;;;;;;5055816;28;20273;-67
2023/05/25 12:33:11;;;;;;;5.88;3.67;;;23.40;99.10;;;;;;5056286;28;20201;-66
2023/05/25 12:35:48;;;;;;;4.97;3.17;;;23.50;96.40;;;;;;5056163;28;20180;-66
2023/05/25 12:38:18;;;;;;;5.75;3.35;;;23.60;98.10;;;;;;5054802;28;20177;-66
2023/05/25 12:40:43;;;;;;;4.78;2.80;;;23.60;99.30;;;;;;5055369;28;20189;-67
2023/05/25 12:43:16;;;;;;;5.07;3.00;;;23.70;99.10;;;;;;5054539;28;20177;-66
2023/05/25 12:45:42;;;;;;;5.47;3.60;;;23.70;98.20;;;;;;5055313;28;20266;-65
2023/05/25 12:48:08;;;;;;;4.95;3.03;;;23.70;98.10;;;;;;5055257;28;20224;-66
2023/05/25 12:50:33;;;;;;;5.97;3.10;;;23.70;97.80;;;;;;5051427;28;20237;-66
2023/05/25 12:53:04;;;;;;;5.22;2.80;;;23.60;97.60;;;;;;5060584;28;20197;-68
2023/05/25 12:55:35;;;;;;;6.57;3.70;;;23.50;97.90;;;;;;5055353;28;20230;-65
2023/05/25 12:58:04;;;;;;;5.35;3.15;;;23.50;97.30;;;;;;5054633;28;20192;-66
2023/05/25 13:00:31;;;;;;;4.88;3.00;;;23.50;97.80;;;;;;5055420;28;20184;-66
2023/05/25 13:02:57;;;;;;;5.00;3.15;;;23.50;97.80;;;;;;5050073;28;20178;-65
2023/05/25 13:05:27;;;;;;;4.18;2.78;;;23.50;97.40;;;;;;5051131;28;20235;-65
2023/05/25 13:07:54;;;;;;;6.05;3.10;;;23.50;97.20;;;;;;5053884;28;20193;-65
2023/05/25 13:10:21;;;;;;;6.57;3.30;;;23.50;97.50;;;;;;5050171;28;20190;-67
2023/05/25 13:12:48;;;;;;;7.13;3.20;;;23.60;97.30;;;;;;5061582;28;20196;-65
2023/05/25 13:15:17;;;;;;;5.72;3.28;;;23.60;96.70;;;;;;5054944;28;20197;-65
2023/05/25 13:17:43;;;;;;;6.22;3.60;;;23.60;96.70;;;;;;5052058;28;20213;-66
2023/05/25 13:20:16;;;;;;;4.10;3.20;;;23.70;96.60;;;;;;5053535;28;20196;-65
2023/05/25 13:22:43;;;;;;;6.97;3.00;;;23.60;95.80;;;;;;5053735;28;20211;-65
2023/05/25 13:25:13;;;;;;;5.07;3.17;;;23.50;95.90;;;;;;5059780;28;20173;-64